createdAt,value
2019-01-03T00:00:01.785Z,18.10
2019-01-03T00:01:00.252Z,18.10
2019-01-03T00:02:00.241Z,18.10
2019-01-03T00:03:00.268Z,18.09
2019-01-03T00:04:00.211Z,18.13
2019-01-03T00:05:00.287Z,18.09
2019-01-03T00:06:00.192Z,18.07
2019-01-03T00:07:00.433Z,18.13
2019-01-03T00:08:00.232Z,18.09
2019-01-03T00:09:00.916Z,18.05
2019-01-03T00:10:00.275Z,18.09
2019-01-03T00:11:00.314Z,18.10
2019-01-03T00:12:00.131Z,18.11
2019-01-03T00:13:00.233Z,18.10
2019-01-03T00:14:00.129Z,18.11
2019-01-03T00:15:00.195Z,18.10
2019-01-03T00:16:00.082Z,18.14
2019-01-03T00:17:00.073Z,18.07
2019-01-03T00:18:00.098Z,18.09
2019-01-03T00:19:00.365Z,18.10
2019-01-03T00:20:00.223Z,18.14
2019-01-03T00:21:00.032Z,18.13
2019-01-03T00:22:00.038Z,18.09
2019-01-03T00:23:00.007Z,18.09
2019-01-03T00:24:00.076Z,18.07
2019-01-03T00:24:59.998Z,18.04
2019-01-03T00:25:59.975Z,18.10
2019-01-03T00:26:59.976Z,18.04
2019-01-03T00:27:59.950Z,18.07
2019-01-03T00:28:59.954Z,18.05
2019-01-03T00:29:59.938Z,17.99
2019-01-03T00:30:59.923Z,18.05
2019-01-03T00:31:59.913Z,18.05
2019-01-03T00:32:59.896Z,18.04
2019-01-03T00:33:59.956Z,17.99
2019-01-03T00:34:59.873Z,17.99
2019-01-03T00:35:59.861Z,18.01
2019-01-03T00:36:59.912Z,18.07
2019-01-03T00:37:59.842Z,18.04
2019-01-03T00:38:59.853Z,18.09
2019-01-03T00:39:59.817Z,18.05
2019-01-03T00:40:59.836Z,18.09
2019-01-03T00:41:59.802Z,17.95
2019-01-03T00:42:59.797Z,17.98
2019-01-03T00:43:59.823Z,17.96
2019-01-03T00:44:59.765Z,17.99
2019-01-03T00:45:59.751Z,17.99
2019-01-03T00:46:59.742Z,18.02
2019-01-03T00:47:59.729Z,17.92
2019-01-03T00:48:59.726Z,17.92
2019-01-03T00:49:59.726Z,17.92
2019-01-03T00:50:59.734Z,17.94
2019-01-03T00:51:59.691Z,17.89
2019-01-03T00:52:59.718Z,17.95
2019-01-03T00:53:59.669Z,17.89
2019-01-03T00:54:59.700Z,17.91
2019-01-03T00:55:59.654Z,17.91
2019-01-03T00:56:59.631Z,17.91
2019-01-03T00:57:59.619Z,17.83
2019-01-03T00:58:59.618Z,17.83
2019-01-03T00:59:59.615Z,17.89
2019-01-03T01:00:59.599Z,17.92
2019-01-03T01:01:59.580Z,17.81
2019-01-03T01:02:59.567Z,17.80
2019-01-03T01:03:59.553Z,17.80
2019-01-03T01:04:59.561Z,17.77
2019-01-03T01:05:59.561Z,17.92
2019-01-03T01:06:59.535Z,17.91
2019-01-03T01:07:59.534Z,17.83
2019-01-03T01:08:59.507Z,17.76
2019-01-03T01:09:59.507Z,17.79
2019-01-03T01:10:59.477Z,17.81
2019-01-03T01:11:59.464Z,17.81
2019-01-03T01:12:59.493Z,17.73
2019-01-03T01:13:59.467Z,17.81
2019-01-03T01:14:59.476Z,17.71
2019-01-03T01:15:59.432Z,17.73
2019-01-03T01:16:59.412Z,17.68
2019-01-03T01:17:59.403Z,17.71
2019-01-03T01:18:59.410Z,17.63
2019-01-03T01:19:59.379Z,17.70
2019-01-03T01:20:59.388Z,17.60
2019-01-03T01:21:59.358Z,17.73
2019-01-03T01:22:59.384Z,17.65
2019-01-03T01:23:59.341Z,17.66
2019-01-03T01:24:59.338Z,17.70
2019-01-03T01:25:59.346Z,17.65
2019-01-03T01:26:59.329Z,17.66
2019-01-03T01:27:59.289Z,17.71
2019-01-03T01:28:59.280Z,17.60
2019-01-03T01:29:59.279Z,17.68
2019-01-03T01:30:59.288Z,17.54
2019-01-03T01:31:59.255Z,17.53
2019-01-03T01:32:59.240Z,17.63
2019-01-03T01:33:59.223Z,17.60
2019-01-03T01:34:59.219Z,17.57
2019-01-03T01:35:59.320Z,17.51
2019-01-03T01:36:59.191Z,17.62
2019-01-03T01:37:59.194Z,17.58
2019-01-03T01:38:59.168Z,17.66
2019-01-03T01:39:59.156Z,17.62
2019-01-03T01:40:59.163Z,17.70
2019-01-03T01:41:59.154Z,17.47
2019-01-03T01:42:59.126Z,17.53
2019-01-03T01:43:59.132Z,17.49
2019-01-03T01:44:59.103Z,17.51
2019-01-03T01:45:59.111Z,17.54
2019-01-03T01:46:59.117Z,17.54
2019-01-03T01:47:59.113Z,17.46
2019-01-03T01:48:59.058Z,17.45
2019-01-03T01:49:59.057Z,17.47
2019-01-03T01:50:59.059Z,17.46
2019-01-03T01:51:59.031Z,17.43
2019-01-03T01:52:59.014Z,17.42
2019-01-03T01:53:59.005Z,17.43
2019-01-03T01:54:59.000Z,17.43
2019-01-03T01:55:59.042Z,17.46
2019-01-03T01:56:58.984Z,17.42
2019-01-03T01:57:58.966Z,17.47
2019-01-03T01:58:58.961Z,17.45
2019-01-03T01:59:58.939Z,17.47
2019-01-03T02:00:58.926Z,17.42
2019-01-03T02:01:58.976Z,17.53
2019-01-03T02:02:58.905Z,17.43
2019-01-03T02:03:58.935Z,17.49
2019-01-03T02:04:58.891Z,17.46
2019-01-03T02:05:58.873Z,17.46
2019-01-03T02:06:58.876Z,17.51
2019-01-03T02:07:58.858Z,17.46
2019-01-03T02:08:58.838Z,17.49
2019-01-03T02:09:58.833Z,17.43
2019-01-03T02:10:58.840Z,17.46
2019-01-03T02:11:58.832Z,17.46
2019-01-03T02:12:58.795Z,17.39
2019-01-03T02:13:58.798Z,17.49
2019-01-03T02:14:58.783Z,17.45
2019-01-03T02:15:58.762Z,17.38
2019-01-03T02:16:58.810Z,17.43
2019-01-03T02:17:58.739Z,17.38
2019-01-03T02:18:58.729Z,17.45
2019-01-03T02:19:58.726Z,17.42
2019-01-03T02:20:58.716Z,17.33
2019-01-03T02:21:58.714Z,17.30
2019-01-03T02:22:58.697Z,17.32
2019-01-03T02:23:58.679Z,17.36
2019-01-03T02:24:58.661Z,17.28
2019-01-03T02:25:58.661Z,17.24
2019-01-03T02:26:58.668Z,17.25
2019-01-03T02:27:58.635Z,17.22
2019-01-03T02:28:58.620Z,17.15
2019-01-03T02:29:58.613Z,17.22
2019-01-03T02:30:58.596Z,17.17
2019-01-03T02:31:58.619Z,17.24
2019-01-03T02:32:58.580Z,17.17
2019-01-03T02:33:58.573Z,17.15
2019-01-03T02:34:58.553Z,17.20
2019-01-03T02:35:58.542Z,17.17
2019-01-03T02:36:58.546Z,17.17
2019-01-03T02:37:58.534Z,17.21
2019-01-03T02:38:58.511Z,17.10
2019-01-03T02:39:58.511Z,17.07
2019-01-03T02:40:59.407Z,17.09
2019-01-03T02:41:58.493Z,17.06
2019-01-03T02:42:58.481Z,17.00
2019-01-03T02:43:58.484Z,17.00
2019-01-03T02:44:58.449Z,16.95
2019-01-03T02:45:58.432Z,16.98
2019-01-03T02:46:58.454Z,16.92
2019-01-03T02:47:58.411Z,16.95
2019-01-03T02:48:58.419Z,16.91
2019-01-03T02:49:58.411Z,16.90
2019-01-03T02:50:58.394Z,16.91
2019-01-03T02:51:58.366Z,16.88
2019-01-03T02:52:58.372Z,16.88
2019-01-03T02:53:58.348Z,16.85
2019-01-03T02:54:58.342Z,16.84
2019-01-03T02:55:58.333Z,16.80
2019-01-03T02:56:58.314Z,16.80
2019-01-03T02:57:58.325Z,16.80
2019-01-03T02:58:58.301Z,16.85
2019-01-03T02:59:58.279Z,16.80
2019-01-03T03:00:58.266Z,16.80
2019-01-03T03:01:58.269Z,16.77
2019-01-03T03:02:58.266Z,16.77
2019-01-03T03:03:58.233Z,16.73
2019-01-03T03:04:58.232Z,16.73
2019-01-03T03:05:58.216Z,16.73
2019-01-03T03:06:58.207Z,16.70
2019-01-03T03:07:58.224Z,16.73
2019-01-03T03:08:58.198Z,16.75
2019-01-03T03:09:58.166Z,16.70
2019-01-03T03:10:58.155Z,16.63
2019-01-03T03:11:58.157Z,16.75
2019-01-03T03:12:58.155Z,16.73
2019-01-03T03:13:58.134Z,16.66
2019-01-03T03:14:58.111Z,16.75
2019-01-03T03:15:58.100Z,16.70
2019-01-03T03:16:58.088Z,16.70
2019-01-03T03:17:58.097Z,16.55
2019-01-03T03:18:58.081Z,16.62
2019-01-03T03:19:58.079Z,16.65
2019-01-03T03:20:58.048Z,16.63
2019-01-03T03:21:58.032Z,16.59
2019-01-03T03:22:58.042Z,16.63
2019-01-03T03:23:58.018Z,16.60
2019-01-03T03:24:58.004Z,16.59
2019-01-03T03:25:58.013Z,16.57
2019-01-03T03:26:57.984Z,16.51
2019-01-03T03:27:57.981Z,16.51
2019-01-03T03:28:57.964Z,16.52
2019-01-03T03:29:57.949Z,16.52
2019-01-03T03:30:57.939Z,16.45
2019-01-03T03:31:57.944Z,16.55
2019-01-03T03:32:57.962Z,16.45
2019-01-03T03:33:57.899Z,16.47
2019-01-03T03:34:57.887Z,16.47
2019-01-03T03:35:57.883Z,16.48
2019-01-03T03:36:57.868Z,16.42
2019-01-03T03:37:57.885Z,16.41
2019-01-03T03:38:57.861Z,16.41
2019-01-03T03:39:57.844Z,16.41
2019-01-03T03:40:57.826Z,16.41
2019-01-03T03:41:57.809Z,16.42
2019-01-03T03:42:57.805Z,16.40
2019-01-03T03:43:57.811Z,16.32
2019-01-03T03:44:57.788Z,16.33
2019-01-03T03:45:57.767Z,16.34
2019-01-03T03:46:57.754Z,16.40
2019-01-03T03:47:57.747Z,16.32
2019-01-03T03:48:57.754Z,16.33
2019-01-03T03:49:57.724Z,16.37
2019-01-03T03:50:57.726Z,16.41
2019-01-03T03:51:57.705Z,16.29
2019-01-03T03:52:57.692Z,16.27
2019-01-03T03:53:57.705Z,16.29
2019-01-03T03:54:57.675Z,16.30
2019-01-03T03:55:57.658Z,16.25
2019-01-03T03:56:57.641Z,16.30
2019-01-03T03:57:57.648Z,16.26
2019-01-03T03:58:57.652Z,16.29
2019-01-03T03:59:57.616Z,16.25
2019-01-03T04:00:57.599Z,16.27
2019-01-03T04:01:57.589Z,16.27
2019-01-03T04:02:57.574Z,16.26
2019-01-03T04:03:57.613Z,16.25
2019-01-03T04:04:57.566Z,16.25
2019-01-03T04:05:57.548Z,16.23
2019-01-03T04:06:57.542Z,16.22
2019-01-03T04:07:57.525Z,16.18
2019-01-03T04:08:57.536Z,16.18
2019-01-03T04:09:57.512Z,16.18
2019-01-03T04:10:57.493Z,16.18
2019-01-03T04:11:57.487Z,16.22
2019-01-03T04:12:57.464Z,16.14
2019-01-03T04:13:57.527Z,16.11
2019-01-03T04:14:57.452Z,16.13
2019-01-03T04:15:57.455Z,16.22
2019-01-03T04:16:57.427Z,16.07
2019-01-03T04:17:57.419Z,16.07
2019-01-03T04:18:57.403Z,16.11
2019-01-03T04:19:57.421Z,16.07
2019-01-03T04:20:57.388Z,16.11
2019-01-03T04:21:57.375Z,16.13
2019-01-03T04:22:57.362Z,16.04
2019-01-03T04:23:57.339Z,16.10
2019-01-03T04:24:57.353Z,16.14
2019-01-03T04:25:57.339Z,16.07
2019-01-03T04:26:57.310Z,16.04
2019-01-03T04:27:57.312Z,16.10
2019-01-03T04:28:57.311Z,16.06
2019-01-03T04:29:57.309Z,15.99
2019-01-03T04:30:57.268Z,16.08
2019-01-03T04:31:57.256Z,16.04
2019-01-03T04:32:57.274Z,16.06
2019-01-03T04:33:57.242Z,16.08
2019-01-03T04:34:57.242Z,16.06
2019-01-03T04:35:57.217Z,15.99
2019-01-03T04:36:57.204Z,16.03
2019-01-03T04:37:57.183Z,16.03
2019-01-03T04:38:57.178Z,16.03
2019-01-03T04:39:57.191Z,15.99
2019-01-03T04:40:57.154Z,16.04
2019-01-03T04:41:57.138Z,15.92
2019-01-03T04:42:57.131Z,15.93
2019-01-03T04:43:57.122Z,15.96
2019-01-03T04:44:57.309Z,15.92
2019-01-03T04:45:57.112Z,15.91
2019-01-03T04:46:57.144Z,15.92
2019-01-03T04:47:57.081Z,15.92
2019-01-03T04:48:57.077Z,15.88
2019-01-03T04:49:57.064Z,15.91
2019-01-03T04:50:57.063Z,15.85
2019-01-03T04:51:57.086Z,15.86
2019-01-03T04:52:57.022Z,15.80
2019-01-03T04:53:57.030Z,15.80
2019-01-03T04:54:56.997Z,15.85
2019-01-03T04:55:57.010Z,15.80
2019-01-03T04:56:56.972Z,15.84
2019-01-03T04:57:56.975Z,15.78
2019-01-03T04:58:56.962Z,15.81
2019-01-03T04:59:56.940Z,15.78
2019-01-03T05:00:56.950Z,15.84
2019-01-03T05:01:56.924Z,15.80
2019-01-03T05:02:56.911Z,15.81
2019-01-03T05:03:56.912Z,15.84
2019-01-03T05:04:56.929Z,15.77
2019-01-03T05:05:56.899Z,15.78
2019-01-03T05:06:56.878Z,15.77
2019-01-03T05:07:57.554Z,15.81
2019-01-03T05:08:56.851Z,15.76
2019-01-03T05:09:56.832Z,15.80
2019-01-03T05:10:56.825Z,15.84
2019-01-03T05:11:56.836Z,15.73
2019-01-03T05:12:56.813Z,15.77
2019-01-03T05:13:56.792Z,15.73
2019-01-03T05:14:56.783Z,15.68
2019-01-03T05:15:56.798Z,15.73
2019-01-03T05:16:56.781Z,15.70
2019-01-03T05:17:56.814Z,15.71
2019-01-03T05:18:56.740Z,15.67
2019-01-03T05:19:56.713Z,15.67
2019-01-03T05:20:56.704Z,15.62
2019-01-03T05:21:56.710Z,15.70
2019-01-03T05:22:56.713Z,15.66
2019-01-03T05:23:57.521Z,15.64
2019-01-03T05:24:56.670Z,15.62
2019-01-03T05:25:56.653Z,15.59
2019-01-03T05:26:56.693Z,15.62
2019-01-03T05:27:56.631Z,15.62
2019-01-03T05:28:56.675Z,15.60
2019-01-03T05:29:56.603Z,15.58
2019-01-03T05:30:56.593Z,15.60
2019-01-03T05:31:56.653Z,15.58
2019-01-03T05:32:56.568Z,15.64
2019-01-03T05:33:56.560Z,15.58
2019-01-03T05:34:56.566Z,15.62
2019-01-03T05:35:56.554Z,15.59
2019-01-03T05:36:56.593Z,15.58
2019-01-03T05:37:56.530Z,15.60
2019-01-03T05:38:56.531Z,15.48
2019-01-03T05:39:56.500Z,15.60
2019-01-03T05:40:56.480Z,15.66
2019-01-03T05:41:56.489Z,15.56
2019-01-03T05:42:56.465Z,15.49
2019-01-03T05:43:56.473Z,15.52
2019-01-03T05:44:56.435Z,15.53
2019-01-03T05:45:56.421Z,15.52
2019-01-03T05:46:56.484Z,15.56
2019-01-03T05:47:56.399Z,15.53
2019-01-03T05:48:56.416Z,15.55
2019-01-03T05:49:56.408Z,15.53
2019-01-03T05:50:56.367Z,15.55
2019-01-03T05:51:56.355Z,15.56
2019-01-03T05:52:56.365Z,15.59
2019-01-03T05:53:56.337Z,15.49
2019-01-03T05:54:56.342Z,15.44
2019-01-03T05:55:56.315Z,15.53
2019-01-03T05:56:56.310Z,15.49
2019-01-03T05:57:56.309Z,15.41
2019-01-03T05:58:56.277Z,15.46
2019-01-03T05:59:56.275Z,15.52
2019-01-03T06:00:56.255Z,15.43
2019-01-03T06:01:56.244Z,15.49
2019-01-03T06:02:56.258Z,15.46
2019-01-03T06:03:56.231Z,15.46
2019-01-03T06:04:56.217Z,15.46
2019-01-03T06:05:56.202Z,15.41
2019-01-03T06:06:56.196Z,15.41
2019-01-03T06:07:56.194Z,15.38
2019-01-03T06:08:56.164Z,15.41
2019-01-03T06:09:56.165Z,15.38
2019-01-03T06:10:56.149Z,15.43
2019-01-03T06:11:56.136Z,15.41
2019-01-03T06:12:56.148Z,15.34
2019-01-03T06:13:56.111Z,15.41
2019-01-03T06:14:56.100Z,15.40
2019-01-03T06:15:56.105Z,15.40
2019-01-03T06:16:56.081Z,15.31
2019-01-03T06:17:56.079Z,15.34
2019-01-03T06:18:56.053Z,15.30
2019-01-03T06:19:56.040Z,15.35
2019-01-03T06:20:56.031Z,15.30
2019-01-03T06:21:56.035Z,15.30
2019-01-03T06:22:56.032Z,15.34
2019-01-03T06:23:55.996Z,15.22
2019-01-03T06:24:55.996Z,15.31
2019-01-03T06:25:55.974Z,15.33
2019-01-03T06:26:55.966Z,15.22
2019-01-03T06:27:55.976Z,15.18
2019-01-03T06:28:55.963Z,15.27
2019-01-03T06:29:55.933Z,15.25
2019-01-03T06:30:55.920Z,15.27
2019-01-03T06:31:55.908Z,15.20
2019-01-03T06:32:55.927Z,15.23
2019-01-03T06:33:55.887Z,15.22
2019-01-03T06:34:55.901Z,15.23
2019-01-03T06:35:55.867Z,15.25
2019-01-03T06:36:55.855Z,15.19
2019-01-03T06:37:55.842Z,15.23
2019-01-03T06:38:55.849Z,15.20
2019-01-03T06:39:55.825Z,15.18
2019-01-03T06:40:55.828Z,15.19
2019-01-03T06:41:55.803Z,15.19
2019-01-03T06:42:55.786Z,15.15
2019-01-03T06:43:55.805Z,15.18
2019-01-03T06:44:55.775Z,15.18
2019-01-03T06:45:55.754Z,15.18
2019-01-03T06:46:55.775Z,15.18
2019-01-03T06:47:55.739Z,15.18
2019-01-03T06:48:55.744Z,15.19
2019-01-03T06:49:55.718Z,15.13
2019-01-03T06:50:55.699Z,15.18
2019-01-03T06:51:55.707Z,15.18
2019-01-03T06:52:55.684Z,15.18
2019-01-03T06:53:55.705Z,15.18
2019-01-03T06:54:55.654Z,15.18
2019-01-03T06:55:55.644Z,15.15
2019-01-03T06:56:55.634Z,15.19
2019-01-03T06:57:55.635Z,15.09
2019-01-03T06:58:55.651Z,15.16
2019-01-03T06:59:55.600Z,15.12
2019-01-03T07:00:55.590Z,15.13
2019-01-03T07:01:55.579Z,15.12
2019-01-03T07:02:55.578Z,15.16
2019-01-03T07:03:55.853Z,15.15
2019-01-03T07:04:55.567Z,15.05
2019-01-03T07:05:55.536Z,15.16
2019-01-03T07:06:55.525Z,15.12
2019-01-03T07:07:55.518Z,15.03
2019-01-03T07:08:55.510Z,15.09
2019-01-03T07:09:55.517Z,15.09
2019-01-03T07:10:55.491Z,15.09
2019-01-03T07:11:55.469Z,15.09
2019-01-03T07:12:55.468Z,15.09
2019-01-03T07:13:55.463Z,15.09
2019-01-03T07:14:55.459Z,15.00
2019-01-03T07:15:55.427Z,15.09
2019-01-03T07:16:55.427Z,15.07
2019-01-03T07:17:55.403Z,15.04
2019-01-03T07:18:55.400Z,14.98
2019-01-03T07:19:55.406Z,15.01
2019-01-03T07:20:55.388Z,15.01
2019-01-03T07:21:55.362Z,15.01
2019-01-03T07:22:55.358Z,15.00
2019-01-03T07:23:55.338Z,15.04
2019-01-03T07:24:55.359Z,15.03
2019-01-03T07:25:55.317Z,14.98
2019-01-03T07:26:55.317Z,15.04
2019-01-03T07:27:55.296Z,14.97
2019-01-03T07:28:55.294Z,14.94
2019-01-03T07:29:55.298Z,14.95
2019-01-03T07:30:55.264Z,14.93
2019-01-03T07:31:55.252Z,14.97
2019-01-03T07:32:55.253Z,15.00
2019-01-03T07:33:55.230Z,14.93
2019-01-03T07:34:55.235Z,15.04
2019-01-03T07:35:55.232Z,15.01
2019-01-03T07:36:55.201Z,14.94
2019-01-03T07:37:55.191Z,14.97
2019-01-03T07:38:55.187Z,15.04
2019-01-03T07:39:55.169Z,14.97
2019-01-03T07:40:55.198Z,14.94
2019-01-03T07:41:55.141Z,14.94
2019-01-03T07:42:55.137Z,14.93
2019-01-03T07:43:55.128Z,14.93
2019-01-03T07:44:55.110Z,14.97
2019-01-03T07:45:55.118Z,15.00
2019-01-03T07:46:55.106Z,14.95
2019-01-03T07:47:55.079Z,14.94
2019-01-03T07:48:55.068Z,14.94
2019-01-03T07:49:55.055Z,14.98
2019-01-03T07:50:55.074Z,15.00
2019-01-03T07:51:55.041Z,14.95
2019-01-03T07:52:55.038Z,15.03
2019-01-03T07:53:55.021Z,14.91
2019-01-03T07:54:54.999Z,14.97
2019-01-03T07:55:55.004Z,14.93
2019-01-03T07:56:55.001Z,14.95
2019-01-03T07:57:54.974Z,14.91
2019-01-03T07:58:54.980Z,14.98
2019-01-03T07:59:54.947Z,14.95
2019-01-03T08:00:54.954Z,14.94
2019-01-03T08:01:54.941Z,14.93
2019-01-03T08:02:54.914Z,14.95
2019-01-03T08:03:54.917Z,14.95
2019-01-03T08:04:54.909Z,14.95
2019-01-03T08:05:54.907Z,14.91
2019-01-03T08:06:54.875Z,15.00
2019-01-03T08:07:54.880Z,14.91
2019-01-03T08:08:55.016Z,14.98
2019-01-03T08:09:54.837Z,14.90
2019-01-03T08:10:54.869Z,14.94
2019-01-03T08:11:54.820Z,14.86
2019-01-03T08:12:54.810Z,14.87
2019-01-03T08:13:54.795Z,14.91
2019-01-03T08:14:54.788Z,14.91
2019-01-03T08:15:54.786Z,14.94
2019-01-03T08:16:54.772Z,14.95
2019-01-03T08:17:54.764Z,14.98
2019-01-03T08:18:54.749Z,14.91
2019-01-03T08:19:54.729Z,14.94
2019-01-03T08:20:54.765Z,14.86
2019-01-03T08:21:54.713Z,15.00
2019-01-03T08:22:54.711Z,14.91
2019-01-03T08:23:54.689Z,14.95
2019-01-03T08:24:54.688Z,14.87
2019-01-03T08:25:54.664Z,14.93
2019-01-03T08:26:54.669Z,14.94
2019-01-03T08:27:54.642Z,15.01
2019-01-03T08:28:54.642Z,15.12
2019-01-03T08:29:54.620Z,15.23
2019-01-03T08:30:54.625Z,15.53
2019-01-03T08:31:54.625Z,15.64
2019-01-03T08:32:54.592Z,15.93
2019-01-03T08:33:54.585Z,16.13
2019-01-03T08:34:54.569Z,16.42
2019-01-03T08:35:54.560Z,16.51
2019-01-03T08:36:54.569Z,16.52
2019-01-03T08:37:54.529Z,16.72
2019-01-03T08:38:54.518Z,16.82
2019-01-03T08:39:54.515Z,16.91
2019-01-03T08:40:54.513Z,16.99
2019-01-03T08:41:54.506Z,17.06
2019-01-03T08:42:54.502Z,17.07
2019-01-03T08:43:54.469Z,17.18
2019-01-03T08:44:54.458Z,17.22
2019-01-03T08:45:54.443Z,17.27
2019-01-03T08:46:54.456Z,17.38
2019-01-03T08:47:54.432Z,17.36
2019-01-03T08:49:00.368Z,17.46
2019-01-03T08:49:55.399Z,17.49
2019-01-03T08:50:54.387Z,17.49
2019-01-03T08:51:54.396Z,17.53
2019-01-03T08:52:54.374Z,17.55
2019-01-03T08:53:54.363Z,17.73
2019-01-03T08:54:54.339Z,17.68
2019-01-03T08:55:54.329Z,17.68
2019-01-03T08:56:54.343Z,17.80
2019-01-03T08:57:54.309Z,17.79
2019-01-03T08:58:54.307Z,17.86
2019-01-03T08:59:54.298Z,17.92
2019-01-03T09:00:54.279Z,17.87
2019-01-03T09:01:54.297Z,17.95
2019-01-03T09:02:54.252Z,17.95
2019-01-03T09:03:54.247Z,17.92
2019-01-03T09:04:54.244Z,17.89
2019-01-03T09:05:54.218Z,17.89
2019-01-03T09:06:54.210Z,17.87
2019-01-03T09:07:54.215Z,17.87
2019-01-03T09:08:54.185Z,17.89
2019-01-03T09:09:54.194Z,17.84
2019-01-03T09:10:54.179Z,17.91
2019-01-03T09:11:54.153Z,17.89
2019-01-03T09:12:54.156Z,17.94
2019-01-03T09:13:54.131Z,17.94
2019-01-03T09:14:54.118Z,17.91
2019-01-03T09:15:54.108Z,17.87
2019-01-03T09:16:54.113Z,17.92
2019-01-03T09:17:54.117Z,17.91
2019-01-03T09:18:54.078Z,17.91
2019-01-03T09:19:54.063Z,17.91
2019-01-03T09:20:54.056Z,17.95
2019-01-03T09:21:54.049Z,17.99
2019-01-03T09:22:54.055Z,17.96
2019-01-03T09:23:54.022Z,17.95
2019-01-03T09:24:54.020Z,18.02
2019-01-03T09:25:53.998Z,18.02
2019-01-03T09:26:53.999Z,18.07
2019-01-03T09:27:54.013Z,18.05
2019-01-03T09:28:53.979Z,18.13
2019-01-03T09:29:53.971Z,18.10
2019-01-03T09:30:53.942Z,18.04
2019-01-03T09:31:53.933Z,18.05
2019-01-03T09:32:53.921Z,18.20
2019-01-03T09:33:53.926Z,18.19
2019-01-03T09:34:53.903Z,18.19
2019-01-03T09:35:53.951Z,18.17
2019-01-03T09:36:53.883Z,18.23
2019-01-03T09:37:53.865Z,18.20
2019-01-03T09:38:53.936Z,18.31
2019-01-03T09:39:53.866Z,18.29
2019-01-03T09:40:53.832Z,18.29
2019-01-03T09:41:53.827Z,18.32
2019-01-03T09:42:53.813Z,18.32
2019-01-03T09:43:53.826Z,18.31
2019-01-03T09:44:53.789Z,18.32
2019-01-03T09:45:54.946Z,18.36
2019-01-03T09:46:53.767Z,18.32
2019-01-03T09:47:53.768Z,18.39
2019-01-03T09:48:53.768Z,18.41
2019-01-03T09:49:53.737Z,18.36
2019-01-03T09:50:53.727Z,18.35
2019-01-03T09:51:53.725Z,18.46
2019-01-03T09:52:53.709Z,18.36
2019-01-03T09:53:53.723Z,18.41
2019-01-03T09:54:53.693Z,18.44
2019-01-03T09:55:54.323Z,18.49
2019-01-03T09:56:53.666Z,18.49
2019-01-03T09:57:53.645Z,18.51
2019-01-03T09:58:54.455Z,18.50
2019-01-03T09:59:53.629Z,18.51
2019-01-03T10:00:53.658Z,18.39
2019-01-03T10:01:53.616Z,18.54
2019-01-03T10:02:53.593Z,18.57
2019-01-03T10:03:54.401Z,18.59
2019-01-03T10:04:53.577Z,18.51
2019-01-03T10:05:53.581Z,18.66
2019-01-03T10:06:53.559Z,18.62
2019-01-03T10:07:53.540Z,18.57
2019-01-03T10:08:53.527Z,18.71
2019-01-03T10:09:55.964Z,18.62
2019-01-03T10:10:53.512Z,18.65
2019-01-03T10:11:53.510Z,18.71
2019-01-03T10:12:53.493Z,18.72
2019-01-03T10:13:53.473Z,18.74
2019-01-03T10:14:53.481Z,18.71
2019-01-03T10:15:53.451Z,18.75
2019-01-03T10:16:53.441Z,18.75
2019-01-03T10:17:53.431Z,18.75
2019-01-03T10:18:53.430Z,18.75
2019-01-03T10:19:53.426Z,18.79
2019-01-03T10:20:53.405Z,18.78
2019-01-03T10:21:53.387Z,18.78
2019-01-03T10:22:53.376Z,18.84
2019-01-03T10:23:53.716Z,18.79
2019-01-03T10:24:53.387Z,18.89
2019-01-03T10:25:53.398Z,18.99
2019-01-03T10:26:54.215Z,18.86
2019-01-03T10:27:53.716Z,18.89
2019-01-03T10:28:53.315Z,18.90
2019-01-03T10:29:53.326Z,18.97
2019-01-03T10:30:53.296Z,18.93
2019-01-03T10:31:53.295Z,18.96
2019-01-03T10:32:53.267Z,18.94
2019-01-03T10:33:53.268Z,18.96
2019-01-03T10:34:53.301Z,19.02
2019-01-03T10:35:53.259Z,19.05
2019-01-03T10:36:53.241Z,19.01
2019-01-03T10:37:53.233Z,18.97
2019-01-03T10:38:53.204Z,19.06
2019-01-03T10:39:53.212Z,19.12
2019-01-03T10:40:53.251Z,19.15
2019-01-03T10:41:53.186Z,19.16
2019-01-03T10:42:53.165Z,19.13
2019-01-03T10:43:53.172Z,19.23
2019-01-03T10:44:53.141Z,19.20
2019-01-03T10:45:53.142Z,19.28
2019-01-03T10:46:54.058Z,19.31
2019-01-03T10:47:53.101Z,19.45
2019-01-03T10:48:53.091Z,19.46
2019-01-03T10:49:53.085Z,19.58
2019-01-03T10:50:53.103Z,19.64
2019-01-03T10:51:53.060Z,19.70
2019-01-03T10:52:53.054Z,19.68
2019-01-03T10:53:53.060Z,19.82
2019-01-03T10:54:53.045Z,19.87
2019-01-03T10:55:53.033Z,19.89
2019-01-03T10:56:55.547Z,20.00
2019-01-03T10:57:52.989Z,20.05
2019-01-03T10:58:53.006Z,20.05
2019-01-03T10:59:52.968Z,20.12
2019-01-03T11:00:52.985Z,20.20
2019-01-03T11:01:53.061Z,20.17
2019-01-03T11:02:52.934Z,20.30
2019-01-03T11:03:52.995Z,20.30
2019-01-03T11:04:52.934Z,20.34
2019-01-03T11:05:52.903Z,20.25
2019-01-03T11:06:52.915Z,20.27
2019-01-03T11:07:52.887Z,20.26
2019-01-03T11:08:52.876Z,20.33
2019-01-03T11:09:52.989Z,20.31
2019-01-03T11:10:52.851Z,20.37
2019-01-03T11:11:52.854Z,20.34
2019-01-03T11:12:52.853Z,20.34
2019-01-03T11:13:53.097Z,20.34
2019-01-03T11:14:52.814Z,20.27
2019-01-03T11:15:52.805Z,20.34
2019-01-03T11:16:52.797Z,20.37
2019-01-03T11:17:52.778Z,20.34
2019-01-03T11:18:52.771Z,20.38
2019-01-03T11:19:52.754Z,20.34
2019-01-03T11:20:52.743Z,20.41
2019-01-03T11:21:52.746Z,20.42
2019-01-03T11:22:52.739Z,20.42
2019-01-03T11:23:52.704Z,20.41
2019-01-03T11:24:52.694Z,20.46
2019-01-03T11:25:52.697Z,20.48
2019-01-03T11:26:52.690Z,20.48
2019-01-03T11:27:52.668Z,20.56
2019-01-03T11:28:52.650Z,20.44
2019-01-03T11:29:52.647Z,20.58
2019-01-03T11:30:52.629Z,20.54
2019-01-03T11:31:52.657Z,20.50
2019-01-03T11:32:52.823Z,20.48
2019-01-03T11:33:52.595Z,20.51
2019-01-03T11:34:52.583Z,20.56
2019-01-03T11:35:52.654Z,20.54
2019-01-03T11:36:52.766Z,20.56
2019-01-03T11:37:52.557Z,20.56
2019-01-03T11:38:52.556Z,20.58
2019-01-03T11:39:52.532Z,20.56
2019-01-03T11:40:52.520Z,20.60
2019-01-03T11:41:52.913Z,20.57
2019-01-03T11:42:52.507Z,20.64
2019-01-03T11:43:52.488Z,20.61
2019-01-03T11:44:54.248Z,20.73
2019-01-03T11:45:53.713Z,20.76
2019-01-03T11:46:53.935Z,20.76
2019-01-03T11:47:52.450Z,20.76
2019-01-03T11:48:52.436Z,20.75
2019-01-03T11:49:52.422Z,20.68
2019-01-03T11:50:52.677Z,20.69
2019-01-03T11:51:52.574Z,20.61
2019-01-03T11:52:53.795Z,20.69
2019-01-03T11:53:52.458Z,20.66
2019-01-03T11:54:52.368Z,20.63
2019-01-03T11:55:52.356Z,20.60
2019-01-03T11:56:52.359Z,20.61
2019-01-03T11:57:52.360Z,20.64
2019-01-03T11:58:52.334Z,20.60
2019-01-03T11:59:52.334Z,20.46
2019-01-03T12:00:52.310Z,20.50
2019-01-03T12:01:52.294Z,20.50
2019-01-03T12:02:52.301Z,20.46
2019-01-03T12:03:52.269Z,20.50
2019-01-03T12:04:52.267Z,20.44
2019-01-03T12:05:52.318Z,20.44
2019-01-03T12:06:52.246Z,20.37
2019-01-03T12:07:52.240Z,20.38
2019-01-03T12:08:52.215Z,20.44
2019-01-03T12:09:52.205Z,20.37
2019-01-03T12:10:52.198Z,20.42
2019-01-03T12:11:52.192Z,20.35
2019-01-03T12:12:52.195Z,20.33
2019-01-03T12:13:52.159Z,20.38
2019-01-03T12:14:52.201Z,20.35
2019-01-03T12:15:52.213Z,20.31
2019-01-03T12:16:52.142Z,20.41
2019-01-03T12:17:52.141Z,20.38
2019-01-03T12:18:52.117Z,20.37
2019-01-03T12:19:52.095Z,20.40
2019-01-03T12:20:52.192Z,20.31
2019-01-03T12:21:52.081Z,20.42
2019-01-03T12:22:52.084Z,20.27
2019-01-03T12:23:52.062Z,20.35
2019-01-03T12:24:52.044Z,20.30
2019-01-03T12:25:52.030Z,20.35
2019-01-03T12:26:52.033Z,20.27
2019-01-03T12:27:52.028Z,20.37
2019-01-03T12:28:52.009Z,20.34
2019-01-03T12:29:51.991Z,20.33
2019-01-03T12:30:51.973Z,20.38
2019-01-03T12:31:51.961Z,20.37
2019-01-03T12:32:51.974Z,20.38
2019-01-03T12:33:51.952Z,20.37
2019-01-03T12:34:51.939Z,20.37
2019-01-03T12:35:51.921Z,20.30
2019-01-03T12:36:51.906Z,20.26
2019-01-03T12:37:51.936Z,20.20
2019-01-03T12:38:51.886Z,20.12
2019-01-03T12:39:51.881Z,20.17
2019-01-03T12:40:51.871Z,20.23
2019-01-03T12:41:51.859Z,20.19
2019-01-03T12:42:51.841Z,20.15
2019-01-03T12:43:51.856Z,20.15
2019-01-03T12:44:51.826Z,20.08
2019-01-03T12:45:51.831Z,20.05
2019-01-03T12:46:51.803Z,20.12
2019-01-03T12:47:51.793Z,20.08
2019-01-03T12:48:51.798Z,20.02
2019-01-03T12:49:51.772Z,19.98
2019-01-03T12:50:51.759Z,19.97
2019-01-03T12:51:51.742Z,19.98